createdAt,value
2023-03-05T00:02:13.888Z,8.70
2023-03-05T00:04:42.661Z,8.50
2023-03-05T00:07:12.713Z,7.90
2023-03-05T00:09:41.584Z,8.00
2023-03-05T00:12:10.285Z,8.40
2023-03-05T00:14:38.838Z,8.30
2023-03-05T00:17:07.450Z,7.60
2023-03-05T00:19:36.060Z,7.60
2023-03-05T00:22:05.005Z,8.10
2023-03-05T00:24:33.917Z,8.10
2023-03-05T00:27:03.093Z,7.40
2023-03-05T00:29:31.912Z,7.30
2023-03-05T00:32:01.436Z,7.00
2023-03-05T00:34:30.348Z,7.20
2023-03-05T00:36:59.167Z,7.40
2023-03-05T00:39:28.043Z,7.50
2023-03-05T00:41:56.998Z,8.30
2023-03-05T00:44:25.885Z,7.40
2023-03-05T00:46:54.757Z,9.00
2023-03-05T00:49:23.950Z,7.30
2023-03-05T00:51:52.706Z,7.50
2023-03-05T00:54:22.442Z,7.90
2023-03-05T00:56:51.755Z,7.50
2023-03-05T00:59:20.970Z,7.70
2023-03-05T01:01:49.896Z,7.70
2023-03-05T01:04:18.554Z,8.10
2023-03-05T01:06:47.179Z,7.80
2023-03-05T01:09:15.908Z,8.10
2023-03-05T01:11:44.981Z,7.40
2023-03-05T01:14:14.674Z,7.40
2023-03-05T01:16:43.489Z,7.60
2023-03-05T01:19:13.563Z,8.10
2023-03-05T01:21:43.578Z,8.10
2023-03-05T01:24:12.572Z,7.70
2023-03-05T01:26:41.502Z,7.70
2023-03-05T01:29:10.260Z,8.20
2023-03-05T01:31:39.802Z,8.20
2023-03-05T01:34:08.649Z,8.30
2023-03-05T01:36:40.483Z,8.00
2023-03-05T01:39:09.478Z,7.80
2023-03-05T01:41:38.638Z,7.50
2023-03-05T01:44:07.719Z,7.70
2023-03-05T01:46:39.758Z,8.50
2023-03-05T01:49:11.656Z,8.90
2023-03-05T01:51:48.872Z,7.60
2023-03-05T01:54:21.452Z,7.10
2023-03-05T01:56:53.060Z,7.60
2023-03-05T01:59:24.140Z,7.60
2023-03-05T02:01:56.724Z,7.40
2023-03-05T02:04:33.196Z,6.80
2023-03-05T02:07:03.098Z,7.00
2023-03-05T02:09:32.006Z,7.00
2023-03-05T02:12:00.861Z,7.40
2023-03-05T02:14:30.123Z,7.50
2023-03-05T02:16:59.470Z,7.30
2023-03-05T02:19:28.973Z,6.90
2023-03-05T02:21:57.995Z,7.10
2023-03-05T02:24:37.012Z,7.40
2023-03-05T02:27:06.765Z,7.20
2023-03-05T02:29:39.887Z,7.80
2023-03-05T02:32:09.999Z,7.40
2023-03-05T02:34:39.003Z,7.10
2023-03-05T02:37:09.808Z,6.90
2023-03-05T02:39:40.071Z,7.20
2023-03-05T02:42:08.930Z,7.70
2023-03-05T02:44:40.107Z,6.70
2023-03-05T02:47:08.738Z,7.30
2023-03-05T02:49:37.751Z,7.90
2023-03-05T02:52:07.176Z,7.90
2023-03-05T02:54:35.933Z,8.10
2023-03-05T02:57:04.702Z,7.70
2023-03-05T02:59:33.630Z,7.20
2023-03-05T03:02:02.726Z,7.10
2023-03-05T03:04:31.731Z,7.50
2023-03-05T03:07:00.612Z,8.00
2023-03-05T03:09:29.827Z,8.30
2023-03-05T03:11:58.905Z,6.90
2023-03-05T03:14:28.176Z,7.00
2023-03-05T03:16:57.111Z,7.50
2023-03-05T03:19:26.058Z,7.80
2023-03-05T03:21:55.605Z,7.50
2023-03-05T03:24:24.523Z,7.10
2023-03-05T03:26:53.589Z,7.00
2023-03-05T03:29:22.632Z,6.70
2023-03-05T03:31:52.197Z,7.60
2023-03-05T03:34:21.866Z,7.20
2023-03-05T03:36:53.472Z,7.20
2023-03-05T03:39:24.002Z,7.10
2023-03-05T03:41:54.556Z,7.70
2023-03-05T03:44:23.369Z,7.40
2023-03-05T03:46:54.706Z,7.50
2023-03-05T03:49:26.213Z,7.00
2023-03-05T03:51:56.009Z,6.90
2023-03-05T03:54:25.232Z,7.00
2023-03-05T03:56:54.143Z,7.40
2023-03-05T03:59:23.060Z,7.20
2023-03-05T04:01:53.447Z,6.70
2023-03-05T04:04:22.642Z,7.10
2023-03-05T04:06:51.500Z,7.50
2023-03-05T04:09:20.539Z,7.10
2023-03-05T04:11:49.457Z,7.00
2023-03-05T04:14:18.421Z,6.80
2023-03-05T04:16:47.437Z,6.30
2023-03-05T04:19:16.308Z,6.40
2023-03-05T04:21:45.272Z,6.70
2023-03-05T04:24:14.296Z,6.80
2023-03-05T04:26:43.484Z,7.30
2023-03-05T04:29:12.313Z,7.30
2023-03-05T04:31:41.123Z,8.30
2023-03-05T04:34:10.100Z,8.20
2023-03-05T04:36:38.857Z,8.20
2023-03-05T04:39:08.089Z,7.50
2023-03-05T04:41:37.158Z,7.50
2023-03-05T04:44:06.651Z,7.00
2023-03-05T04:46:35.590Z,7.50
2023-03-05T04:49:04.700Z,7.80
2023-03-05T04:51:33.582Z,7.40
2023-03-05T04:54:02.526Z,7.00
2023-03-05T04:56:32.575Z,6.20
2023-03-05T04:59:01.979Z,6.20
2023-03-05T05:01:31.110Z,6.20
2023-03-05T05:04:00.876Z,6.90
2023-03-05T05:06:30.320Z,6.90
2023-03-05T05:08:59.223Z,6.80
2023-03-05T05:11:28.637Z,6.90
2023-03-05T05:13:57.666Z,7.00
2023-03-05T05:16:26.907Z,7.50
2023-03-05T05:18:55.953Z,6.80
2023-03-05T05:21:24.821Z,6.80
2023-03-05T05:23:53.836Z,6.40
2023-03-05T05:26:22.805Z,7.70
2023-03-05T05:28:52.275Z,7.10
2023-03-05T05:31:21.282Z,7.20
2023-03-05T05:33:50.363Z,6.30
2023-03-05T05:36:19.901Z,6.80
2023-03-05T05:38:49.540Z,7.30
2023-03-05T05:41:19.914Z,7.80
2023-03-05T05:43:49.190Z,6.90
2023-03-05T05:46:20.929Z,6.80
2023-03-05T05:48:50.020Z,6.40
2023-03-05T05:51:22.743Z,7.00
2023-03-05T05:53:52.441Z,7.30
2023-03-05T05:56:22.115Z,6.40
2023-03-05T05:58:51.359Z,6.40
2023-03-05T06:01:22.375Z,6.90
2023-03-05T06:03:52.585Z,7.10
2023-03-05T06:06:24.694Z,7.60
2023-03-05T06:08:55.166Z,8.30
2023-03-05T06:11:24.599Z,8.10
2023-03-05T06:13:53.928Z,7.20
2023-03-05T06:16:25.358Z,7.50
2023-03-05T06:18:54.643Z,7.00
2023-03-05T06:21:24.721Z,7.30
2023-03-05T06:23:53.810Z,7.30
2023-03-05T06:26:23.444Z,7.20
2023-03-05T06:28:53.065Z,6.90
2023-03-05T06:31:27.794Z,7.40
2023-03-05T06:34:01.485Z,7.40
2023-03-05T06:36:30.881Z,7.30
2023-03-05T06:38:59.849Z,7.60
2023-03-05T06:41:31.257Z,7.60
2023-03-05T06:44:02.752Z,7.40
2023-03-05T06:46:37.939Z,7.30
2023-03-05T06:49:09.024Z,7.60
2023-03-05T06:51:40.322Z,8.50
2023-03-05T06:54:13.365Z,8.10
2023-03-05T06:56:45.405Z,7.80
2023-03-05T06:59:16.598Z,7.50
2023-03-05T07:01:46.263Z,7.50
2023-03-05T07:04:16.689Z,7.20
2023-03-05T07:06:46.353Z,7.70
2023-03-05T07:09:16.962Z,8.10
2023-03-05T07:11:46.189Z,8.40
2023-03-05T07:14:15.377Z,7.80
2023-03-05T07:16:45.295Z,8.20
2023-03-05T07:19:15.163Z,8.30
2023-03-05T07:21:45.148Z,8.10
2023-03-05T07:24:14.893Z,7.90
2023-03-05T07:26:43.945Z,7.90
2023-03-05T07:29:18.971Z,8.30
2023-03-05T07:31:59.133Z,8.80
2023-03-05T07:34:31.347Z,8.90
2023-03-05T07:37:00.979Z,9.20
2023-03-05T07:39:30.744Z,9.40
2023-03-05T07:42:00.534Z,9.50
2023-03-05T07:44:32.132Z,9.90
2023-03-05T07:47:01.127Z,9.50
2023-03-05T07:49:30.161Z,9.80
2023-03-05T07:51:59.242Z,9.80
2023-03-05T07:54:28.122Z,9.10
2023-03-05T07:56:57.038Z,9.00
2023-03-05T07:59:26.008Z,9.10
2023-03-05T08:01:55.004Z,10.10
2023-03-05T08:04:24.880Z,9.60
2023-03-05T08:06:54.140Z,8.90
2023-03-05T08:09:23.181Z,9.30
2023-03-05T08:11:52.141Z,9.60
2023-03-05T08:14:21.495Z,8.80
2023-03-05T08:16:54.084Z,8.70
2023-03-05T08:19:23.922Z,9.60
2023-03-05T08:21:55.014Z,9.40
2023-03-05T08:24:29.986Z,9.50
2023-03-05T08:26:59.763Z,8.60
2023-03-05T08:29:29.116Z,9.10
2023-03-05T08:31:57.834Z,8.60
2023-03-05T08:34:27.217Z,8.90
2023-03-05T08:36:56.764Z,8.80
2023-03-05T08:39:26.145Z,8.50
2023-03-05T08:41:55.477Z,8.70
2023-03-05T08:44:25.494Z,8.00
2023-03-05T08:46:55.271Z,8.20
2023-03-05T08:49:24.294Z,8.60
2023-03-05T08:51:53.602Z,8.00
2023-03-05T08:54:22.898Z,8.80
2023-03-05T08:56:52.398Z,8.50
2023-03-05T08:59:21.608Z,8.00
2023-03-05T09:01:51.690Z,8.30
2023-03-05T09:04:21.639Z,8.50
2023-03-05T09:06:51.198Z,8.10
2023-03-05T09:09:23.847Z,8.10
2023-03-05T09:11:53.959Z,8.30
2023-03-05T09:14:23.811Z,8.00
2023-03-05T09:16:52.972Z,8.40
2023-03-05T09:19:22.579Z,7.90
2023-03-05T09:21:51.841Z,8.10
2023-03-05T09:24:21.296Z,7.80
2023-03-05T09:26:51.474Z,7.90
2023-03-05T09:29:22.031Z,7.70
2023-03-05T09:31:52.573Z,8.10
2023-03-05T09:34:22.975Z,7.70
2023-03-05T09:36:52.206Z,8.00
2023-03-05T09:39:22.124Z,7.40
2023-03-05T09:42:28.701Z,7.90
2023-03-05T09:45:11.279Z,8.00
2023-03-05T09:47:49.968Z,8.10
2023-03-05T09:50:24.040Z,8.30
2023-03-05T09:53:19.552Z,7.60
2023-03-05T09:56:14.853Z,7.60
2023-03-05T09:58:51.488Z,7.70
2023-03-05T10:01:40.697Z,8.10
2023-03-05T10:04:19.933Z,7.20
2023-03-05T10:07:07.860Z,6.70
2023-03-05T10:10:31.464Z,6.90
2023-03-05T10:13:06.333Z,6.60
2023-03-05T10:15:52.705Z,7.50
2023-03-05T10:18:42.827Z,6.70
2023-03-05T10:21:22.951Z,6.90
2023-03-05T10:24:04.130Z,6.30
2023-03-05T10:26:51.801Z,6.20
2023-03-05T10:29:38.535Z,5.80
2023-03-05T10:32:10.988Z,6.20
2023-03-05T10:34:49.804Z,5.80
2023-03-05T10:37:37.307Z,5.90
2023-03-05T10:40:30.252Z,5.70
2023-03-05T10:43:36.800Z,5.50
2023-03-05T10:46:07.550Z,5.40
2023-03-05T10:48:43.567Z,5.10
2023-03-05T10:51:34.766Z,5.00
2023-03-05T10:54:30.158Z,5.30
2023-03-05T10:57:05.342Z,4.60
2023-03-05T10:59:34.394Z,4.40
2023-03-05T11:02:09.414Z,4.40
2023-03-05T11:04:40.806Z,4.30
2023-03-05T11:07:16.153Z,4.00
2023-03-05T11:10:01.458Z,4.40
2023-03-05T11:12:37.299Z,4.50
2023-03-05T11:15:14.934Z,4.90
2023-03-05T11:17:45.406Z,5.00
2023-03-05T11:20:29.646Z,4.60
2023-03-05T11:23:11.203Z,4.80
2023-03-05T11:26:02.986Z,4.80
2023-03-05T11:28:36.976Z,4.60
2023-03-05T11:31:25.324Z,4.20
2023-03-05T11:33:56.737Z,4.50
2023-03-05T11:36:36.315Z,4.50
2023-03-05T11:39:09.136Z,4.30
2023-03-05T11:42:03.845Z,4.20
2023-03-05T11:44:42.428Z,4.60
2023-03-05T11:47:38.109Z,4.40
2023-03-05T11:50:24.690Z,4.00
2023-03-05T11:53:19.460Z,3.60
2023-03-05T11:56:13.172Z,4.00
2023-03-05T11:58:52.140Z,3.70
2023-03-05T12:01:25.532Z,3.60
2023-03-05T12:03:56.550Z,3.70
2023-03-05T12:06:43.712Z,3.20
2023-03-05T12:09:42.869Z,3.20
2023-03-05T12:12:24.899Z,3.40
2023-03-05T12:15:01.367Z,3.60
2023-03-05T12:18:08.045Z,3.80
2023-03-05T12:20:50.000Z,3.70
2023-03-05T12:23:22.236Z,4.10
2023-03-05T12:26:01.990Z,3.80
2023-03-05T12:28:37.816Z,3.80
2023-03-05T12:31:10.292Z,4.00
2023-03-05T12:33:44.697Z,3.70
2023-03-05T12:36:23.276Z,3.20
2023-03-05T12:38:54.441Z,3.60
2023-03-05T12:41:24.963Z,3.70
2023-03-05T12:44:08.395Z,3.10
2023-03-05T12:46:39.665Z,2.80
2023-03-05T12:49:39.645Z,2.10
2023-03-05T12:52:26.898Z,2.00
2023-03-05T12:55:20.762Z,2.00
2023-03-05T12:58:14.722Z,2.20
2023-03-05T13:01:08.559Z,2.20
2023-03-05T13:03:54.029Z,2.10
2023-03-05T13:06:27.003Z,2.00
2023-03-05T13:08:58.245Z,2.10
2023-03-05T13:11:31.848Z,2.40
2023-03-05T13:14:03.485Z,1.90
2023-03-05T13:16:40.145Z,1.90
2023-03-05T13:19:18.820Z,2.30
2023-03-05T13:22:01.338Z,2.10
2023-03-05T13:24:33.217Z,2.40
2023-03-05T13:27:02.683Z,2.00
2023-03-05T13:29:32.037Z,2.10
2023-03-05T13:32:04.970Z,2.00
2023-03-05T13:34:47.358Z,1.80
2023-03-05T13:37:25.180Z,2.00
2023-03-05T13:40:16.069Z,1.90
2023-03-05T13:42:45.743Z,2.10
2023-03-05T13:45:32.360Z,2.10
2023-03-05T13:48:04.812Z,2.20
2023-03-05T13:50:40.302Z,2.20
2023-03-05T13:53:28.773Z,2.40
2023-03-05T13:56:03.610Z,2.50
2023-03-05T13:58:48.296Z,2.60
2023-03-05T14:01:29.808Z,2.40
2023-03-05T14:04:16.537Z,2.20
2023-03-05T14:06:59.696Z,2.50
2023-03-05T14:09:43.650Z,2.30
2023-03-05T14:12:22.573Z,2.30
2023-03-05T14:14:52.157Z,2.30
2023-03-05T14:17:44.254Z,2.30
2023-03-05T14:20:14.238Z,2.40
2023-03-05T14:22:51.434Z,2.30
2023-03-05T14:25:34.947Z,3.50
2023-03-05T14:28:08.790Z,2.60
2023-03-05T14:30:38.530Z,2.50
2023-03-05T14:33:08.275Z,2.50
2023-03-05T14:35:39.045Z,2.80
2023-03-05T14:38:20.669Z,2.80
2023-03-05T14:40:50.777Z,2.70
2023-03-05T14:43:19.930Z,2.70
2023-03-05T14:45:49.090Z,3.20
2023-03-05T14:48:19.710Z,3.00
2023-03-05T14:50:57.344Z,3.00
2023-03-05T14:53:30.608Z,2.60
2023-03-05T14:55:59.988Z,2.80
2023-03-05T14:58:35.316Z,3.10
2023-03-05T15:01:04.703Z,2.90
2023-03-05T15:03:34.180Z,3.10
2023-03-05T15:06:04.169Z,2.90
2023-03-05T15:08:35.209Z,2.70
2023-03-05T15:11:04.789Z,2.70
2023-03-05T15:13:36.968Z,3.20
2023-03-05T15:16:08.708Z,3.00
2023-03-05T15:18:38.971Z,2.90
2023-03-05T15:21:12.132Z,3.20
2023-03-05T15:23:41.971Z,2.90
2023-03-05T15:26:15.448Z,3.30
2023-03-05T15:28:44.939Z,3.00
2023-03-05T15:31:18.876Z,3.40
2023-03-05T15:33:48.404Z,3.30
2023-03-05T15:36:18.225Z,3.30
2023-03-05T15:38:48.822Z,4.30
2023-03-05T15:41:19.772Z,4.40
2023-03-05T15:43:54.977Z,3.80
2023-03-05T15:46:25.974Z,3.60
2023-03-05T15:48:57.260Z,5.60
2023-03-05T15:51:28.591Z,5.00
2023-03-05T15:53:59.497Z,3.50
2023-03-05T15:56:29.644Z,3.70
2023-03-05T15:58:59.718Z,3.40
2023-03-05T16:01:29.972Z,6.00
2023-03-05T16:04:03.037Z,3.70
2023-03-05T16:06:35.190Z,3.90
2023-03-05T16:09:07.125Z,4.10
2023-03-05T16:11:41.726Z,4.10
2023-03-05T16:14:12.594Z,3.40
2023-03-05T16:16:43.958Z,3.60
2023-03-05T16:19:18.689Z,4.70
2023-03-05T16:21:49.484Z,3.60
2023-03-05T16:24:19.243Z,3.10
2023-03-05T16:26:48.916Z,3.10
2023-03-05T16:29:18.293Z,3.40
2023-03-05T16:31:48.488Z,5.60
2023-03-05T16:34:19.846Z,4.70
2023-03-05T16:36:53.650Z,9.80
2023-03-05T16:39:24.229Z,4.10
2023-03-05T16:41:55.479Z,4.50
2023-03-05T16:44:25.849Z,3.80
2023-03-05T16:46:58.127Z,5.50
2023-03-05T16:49:28.281Z,4.30
2023-03-05T16:52:01.373Z,4.10
2023-03-05T16:54:37.823Z,4.80
2023-03-05T16:57:09.747Z,3.90
2023-03-05T16:59:40.468Z,3.60
2023-03-05T17:02:10.753Z,4.30
2023-03-05T17:04:41.232Z,4.00
2023-03-05T17:07:12.551Z,4.40
2023-03-05T17:09:43.151Z,5.90
2023-03-05T17:12:13.338Z,4.90
2023-03-05T17:14:44.100Z,3.80
2023-03-05T17:17:14.023Z,3.80
2023-03-05T17:19:45.736Z,4.10
2023-03-05T17:22:17.781Z,3.90
2023-03-05T17:24:49.006Z,4.10
2023-03-05T17:27:23.492Z,4.40
2023-03-05T17:29:56.241Z,4.80
2023-03-05T17:32:27.773Z,6.20
2023-03-05T17:34:59.817Z,6.20
2023-03-05T17:37:31.003Z,6.00
2023-03-05T17:40:01.300Z,5.90
2023-03-05T17:42:31.433Z,5.60
2023-03-05T17:45:02.208Z,5.80
2023-03-05T17:47:33.981Z,5.60
2023-03-05T17:50:06.489Z,5.60
2023-03-05T17:52:40.107Z,5.50
2023-03-05T17:55:14.011Z,5.60
2023-03-05T17:57:44.926Z,5.50
2023-03-05T18:00:21.216Z,5.80
2023-03-05T18:02:53.064Z,5.80
2023-03-05T18:05:24.967Z,6.20
2023-03-05T18:07:56.325Z,6.90
2023-03-05T18:10:29.142Z,5.90
2023-03-05T18:13:00.690Z,6.90
2023-03-05T18:15:32.388Z,5.60
2023-03-05T18:18:03.541Z,6.00
2023-03-05T18:20:38.490Z,6.00
2023-03-05T18:23:08.712Z,6.00
2023-03-05T18:25:38.470Z,5.50
2023-03-05T18:28:11.277Z,5.90
2023-03-05T18:30:43.985Z,5.40
2023-03-05T18:33:26.072Z,5.80
2023-03-05T18:35:59.550Z,6.10
2023-03-05T18:38:32.158Z,6.20
2023-03-05T18:41:04.695Z,6.00
2023-03-05T18:43:37.697Z,5.90
2023-03-05T18:46:09.553Z,5.90
2023-03-05T18:48:39.523Z,6.00
2023-03-05T18:51:20.685Z,6.10
2023-03-05T18:53:55.490Z,6.80
2023-03-05T18:56:27.574Z,6.50
2023-03-05T18:58:58.936Z,6.70
2023-03-05T19:01:30.222Z,6.70
2023-03-05T19:04:02.665Z,7.00
2023-03-05T19:06:36.611Z,7.50
2023-03-05T19:09:40.689Z,7.70
2023-03-05T19:12:12.384Z,7.90
2023-03-05T19:14:43.410Z,8.70
2023-03-05T19:17:13.813Z,8.40
2023-03-05T19:19:45.300Z,8.60
2023-03-05T19:22:15.444Z,8.30
2023-03-05T19:24:47.477Z,9.30
2023-03-05T19:27:20.396Z,11.00
2023-03-05T19:29:51.405Z,12.60
2023-03-05T19:32:25.465Z,21.90
2023-03-05T19:34:58.872Z,22.30
2023-03-05T19:37:29.565Z,11.20
2023-03-05T19:39:59.960Z,9.90
2023-03-05T19:42:32.340Z,13.80
2023-03-05T19:45:04.765Z,10.50
2023-03-05T19:47:36.454Z,10.40
2023-03-05T19:50:09.249Z,13.40
2023-03-05T19:52:40.160Z,12.80
2023-03-05T19:55:11.589Z,10.70
2023-03-05T19:57:43.135Z,9.60
2023-03-05T20:00:14.244Z,10.40
2023-03-05T20:02:45.125Z,9.00
2023-03-05T20:05:15.052Z,8.90
2023-03-05T20:07:45.033Z,9.10
2023-03-05T20:10:14.553Z,9.20
2023-03-05T20:12:49.606Z,10.10
2023-03-05T20:15:24.195Z,9.50
2023-03-05T20:17:56.030Z,9.00
2023-03-05T20:20:26.157Z,9.50
2023-03-05T20:22:56.029Z,9.90
2023-03-05T20:25:26.120Z,9.70
2023-03-05T20:27:55.399Z,12.40
2023-03-05T20:30:25.353Z,11.10
2023-03-05T20:32:55.176Z,10.70
2023-03-05T20:35:25.654Z,12.70
2023-03-05T20:38:23.640Z,11.80
2023-03-05T20:40:56.773Z,11.70
2023-03-05T20:43:30.101Z,13.20
2023-03-05T20:46:01.907Z,25.20
2023-03-05T20:48:34.879Z,18.30
2023-03-05T20:51:20.331Z,17.90
2023-03-05T20:53:52.745Z,12.00
2023-03-05T20:56:26.465Z,20.00
2023-03-05T20:59:03.723Z,16.20
2023-03-05T21:01:39.701Z,14.90
2023-03-05T21:04:13.250Z,17.10
2023-03-05T21:06:45.786Z,16.80
2023-03-05T21:09:21.033Z,21.30
2023-03-05T21:11:59.504Z,11.50
2023-03-05T21:14:39.970Z,9.10
2023-03-05T21:17:13.123Z,8.70
2023-03-05T21:19:56.486Z,8.70
2023-03-05T21:22:34.207Z,8.80
2023-03-05T21:25:24.535Z,8.30
2023-03-05T21:28:09.583Z,9.10
2023-03-05T21:30:46.681Z,10.80
2023-03-05T21:33:32.982Z,9.90
2023-03-05T21:36:05.981Z,9.10
2023-03-05T21:38:36.629Z,8.60
2023-03-05T21:41:07.353Z,9.20
2023-03-05T21:43:39.556Z,9.50
2023-03-05T21:46:14.754Z,10.30
2023-03-05T21:48:44.970Z,11.10
2023-03-05T21:51:42.953Z,10.60
2023-03-05T21:54:15.524Z,10.40
2023-03-05T21:56:47.043Z,14.70
2023-03-05T21:59:17.868Z,15.30
2023-03-05T22:01:49.932Z,10.50
2023-03-05T22:04:22.264Z,11.10
2023-03-05T22:06:52.682Z,13.30
2023-03-05T22:09:22.378Z,11.00
2023-03-05T22:11:51.533Z,9.90
2023-03-05T22:14:21.875Z,10.40
2023-03-05T22:16:55.793Z,9.20
2023-03-05T22:19:24.950Z,8.70
2023-03-05T22:21:54.366Z,8.10
2023-03-05T22:24:28.833Z,7.40
2023-03-05T22:26:58.634Z,8.40
2023-03-05T22:29:29.336Z,8.50
2023-03-05T22:31:59.434Z,9.50
2023-03-05T22:34:29.653Z,12.30
2023-03-05T22:36:59.117Z,9.70
2023-03-05T22:39:28.464Z,8.60
2023-03-05T22:41:57.522Z,8.70
2023-03-05T22:44:26.652Z,9.20
2023-03-05T22:46:55.982Z,11.60
2023-03-05T22:49:26.036Z,12.20
2023-03-05T22:51:55.391Z,10.10
2023-03-05T22:54:24.762Z,10.10
2023-03-05T22:56:53.613Z,10.30
2023-03-05T22:59:22.841Z,9.70
2023-03-05T23:01:51.968Z,10.60
2023-03-05T23:04:53.779Z,10.00
2023-03-05T23:07:29.856Z,8.60
2023-03-05T23:10:12.784Z,9.10
2023-03-05T23:12:47.104Z,8.50
2023-03-05T23:15:23.164Z,7.90
2023-03-05T23:17:54.506Z,8.40
2023-03-05T23:20:28.241Z,7.30
2023-03-05T23:22:58.967Z,7.00
2023-03-05T23:25:31.422Z,7.00
2023-03-05T23:28:01.282Z,7.70
2023-03-05T23:30:37.828Z,8.70
2023-03-05T23:33:14.510Z,8.20
2023-03-05T23:35:53.117Z,9.40
2023-03-05T23:38:23.723Z,12.60
2023-03-05T23:40:56.053Z,19.70
2023-03-05T23:43:27.497Z,13.20
2023-03-05T23:45:58.121Z,12.90
2023-03-05T23:48:29.729Z,11.20
2023-03-05T23:50:59.016Z,10.00
2023-03-05T23:53:31.888Z,9.50
2023-03-05T23:56:01.557Z,9.80
2023-03-05T23:58:30.760Z,9.10
